Damascus, Arkansas
Current Conditions -  °F | °C
As of 3:58 PM on Saturday 25 Oct 2014 (Local Time) from KLRF Reporting Station
Clear Clear  
Wind Chill: 86°   Ceiling: Unl
Heat Index: 87°   Visibility: 10mi
Dew Point: 64°   Wind: 9mph
Humidity: 48%   Direction: 250°WSW
Pressure: 30.02"   Gusts: NA
Location:  35.36°N, 92.41°W
Report Text: KLRF 252058Z AUTO 25008KT 10SM CLR 30/18 A3002 RMK AO2 SLP167 T02980176 57016
Loading
Personal Weather Stations






























Interactive Weather Map
Tropical Storm Tracking
New forecast layout! Learn more

10-Day Weather Forecast

Advertisements
Track Severe Weather on mobile